Independence — WDD6659 — position and weather

sailwx.info

Track history (hours):
 
Tides and Currents Weather Stations Pressure Air Temp Water Temp Dewpoint Dewpoint Depression Visibility Wind Speed Wind Dir Waves Ship Positions

Independence

Owner: AMNAV Maritime Corporation, Oakland, CA. More information available from US FCC via Universal Licensing System and Coast Guard Vessel Documentation Center.

Last reported at 2017-Mar-30 02:33 UTC. Time now 2017-Mar-30 02:56 UTC.
Position N 33°44' W 118°13'.

; draft 4.9 m.

Type: Tug. MMSI: 367175860.

Date/timePositionNaut miles runAvg speedWind from/ knotsBaromVisibWave heightAir tempDewpointWater temp
2017-Mar-30 02:33N 33°44' W 118°13'3 3.1
2017-Mar-30 01:33N 33°44' W 118°16'0 0.2
2017-Mar-30 00:33N 33°44' W 118°17'2 1.8
2017-Mar-29 23:34N 33°46' W 118°16'0 0.0
2017-Mar-29 22:34N 33°46' W 118°16'3 3.4
2017-Mar-29 21:33N 33°42' W 118°15'2 1.9
2017-Mar-29 20:34N 33°44' W 118°17'0 0.0
2017-Mar-29 19:33N 33°44' W 118°17'1 1.0
2017-Mar-29 18:33N 33°43' W 118°16'1 1.0
2017-Mar-29 17:33N 33°44' W 118°17'0 0.0
2017-Mar-29 16:32N 33°44' W 118°17'1 0.7
2017-Mar-29 15:33N 33°43' W 118°16'3 3.2
2017-Mar-29 14:30N 33°45' W 118°12'0 0.1
2017-Mar-29 13:34N 33°45' W 118°12'1 1.2
2017-Mar-29 12:31N 33°44' W 118°13'1 1.3
2017-Mar-29 11:33N 33°45' W 118°14'2 1.6
2017-Mar-29 10:33N 33°44' W 118°12'0 0.2
2017-Mar-29 09:33N 33°44' W 118°13'3 3.2
2017-Mar-29 08:33N 33°44' W 118°17'0 0.0
2017-Mar-29 07:33N 33°44' W 118°17'0 0.0
2017-Mar-29 06:33N 33°44' W 118°17'0 0.0
2017-Mar-29 05:33N 33°44' W 118°17'0 0.0
2017-Mar-29 04:33N 33°44' W 118°17'0 0.0
2017-Mar-29 03:33N 33°44' W 118°17'0 0.0
2017-Mar-29 02:33N 33°44' W 118°17'0 0.0
2017-Mar-29 01:33N 33°44' W 118°17'0 0.0
2017-Mar-29 00:33N 33°44' W 118°17'1 1.1
2017-Mar-28 23:33N 33°45' W 118°16'0 0.4
2017-Mar-28 22:32N 33°45' W 118°16'4 3.9
2017-Mar-28 21:33N 33°42' W 118°14'3 2.9
2017-Mar-28 20:33N 33°44' W 118°17'0 0.0
2017-Mar-28 19:33N 33°44' W 118°17'0 0.0
2017-Mar-28 18:33N 33°44' W 118°17'0 0.0
2017-Mar-28 17:33N 33°44' W 118°17'0 0.0
2017-Mar-28 16:33N 33°44' W 118°17'3 0.9
2017-Mar-28 13:33N 33°44' W 118°13'1 1.2
2017-Mar-28 12:33N 33°45' W 118°14'2 2.1
2017-Mar-28 11:28N 33°43' W 118°12'3 0.4
2017-Mar-28 03:19N 33°44' W 118°17'0 0.0
2017-Mar-28 02:25N 33°44' W 118°17'0 0.4
2017-Mar-28 01:33N 33°44' W 118°17'1 1.1
2017-Mar-28 00:26N 33°45' W 118°17'1 1.1
2017-Mar-27 23:32N 33°46' W 118°15'1 0.9
2017-Mar-27 22:32N 33°45' W 118°16'3 0.1
2017-Mar-27 00:17N 33°45' W 118°13'3 0.2
2017-Mar-26 07:28N 33°44' W 118°17'2 0.2
2017-Mar-25 22:15N 33°46' W 118°17'2 0.1
2017-Mar-25 09:30N 33°44' W 118°17'2 2.5
2017-Mar-25 08:33N 33°43' W 118°15'2 1.5
2017-Mar-25 07:16N 33°44' W 118°17'0 0.0
2017-Mar-25 04:25N 33°44' W 118°17'0 0.0
2017-Mar-25 03:33N 33°44' W 118°17'0 0.0
2017-Mar-25 02:33N 33°44' W 118°17'0 0.0
2017-Mar-25 01:33N 33°44' W 118°17'1 0.9
2017-Mar-25 00:33N 33°43' W 118°16'3 3.1
2017-Mar-24 23:33N 33°45' W 118°13'0 0.0
2017-Mar-24 22:33N 33°45' W 118°13'0 0.0
2017-Mar-24 21:33N 33°45' W 118°13'0 0.0
2017-Mar-24 20:31N 33°45' W 118°13'0 0.0
2017-Mar-24 19:12N 33°45' W 118°13'2 0.4
2017-Mar-24 15:04N 33°43' W 118°14'1 1.5
2017-Mar-24 14:29N 33°43' W 118°15'1 1.3
2017-Mar-24 13:33N 33°44' W 118°16'0 0.4
2017-Mar-24 12:33N 33°44' W 118°16'0 0.3
2017-Mar-24 11:27N 33°44' W 118°17'0 0.0
2017-Mar-24 10:33N 33°44' W 118°17'0 0.0
2017-Mar-24 09:33N 33°44' W 118°17'0 0.0
2017-Mar-24 05:33N 33°44' W 118°17'1 0.2
2017-Mar-24 00:27N 33°44' W 118°15'1 0.6
2017-Mar-23 22:32N 33°43' W 118°15'3 3.0
2017-Mar-23 21:33N 33°44' W 118°11'1 0.9
2017-Mar-23 20:34N 33°44' W 118°11'5 0.1
2017-Mar-21 19:20N 33°44' W 118°17'2 0.7
2017-Mar-21 16:28N 33°43' W 118°14'3 0.6
2017-Mar-21 12:18N 33°44' W 118°12'1 0.7
2017-Mar-21 11:09N 33°44' W 118°12'2 2.0
2017-Mar-21 10:08N 33°45' W 118°13'0 0.0
2017-Mar-21 09:24N 33°45' W 118°13'0 0.0
2017-Mar-21 08:21N 33°45' W 118°13'1 0.6
2017-Mar-21 07:17N 33°46' W 118°13'3 0.2
2017-Mar-20 18:27N 33°46' W 118°17'3 3.3
2017-Mar-20 17:27N 33°43' W 118°14'1 0.2
2017-Mar-20 11:32N 33°44' W 118°15'1 0.3
2017-Mar-20 07:33N 33°43' W 118°16'3 2.4
2017-Mar-20 06:21N 33°46' W 118°15'2 1.2
2017-Mar-20 04:15N 33°44' W 118°17'0 0.0
2017-Mar-20 03:31N 33°44' W 118°17'  
Track history (hours):
 
Tides and Currents Weather Stations Pressure Air Temp Water Temp Dewpoint Dewpoint Depression Visibility Wind Speed Wind Dir Waves Ship Positions

Independence

Owner: AMNAV Maritime Corporation, Oakland, CA. More information available from US FCC via Universal Licensing System and Coast Guard Vessel Documentation Center.

Last reported at 2017-Mar-30 02:33 UTC. Time now 2017-Mar-30 02:56 UTC.
Position N 33°44' W 118°13'.

; draft 4.9 m.

Type: Tug. MMSI: 367175860.

Date/timePositionNaut miles runAvg speedWind from/ knotsBaromVisibWave heightAir tempDewpointWater temp
2017-Mar-30 02:33N 33°44' W 118°13'3 3.1
2017-Mar-30 01:33N 33°44' W 118°16'0 0.2
2017-Mar-30 00:33N 33°44' W 118°17'2 1.8
2017-Mar-29 23:34N 33°46' W 118°16'0 0.0
2017-Mar-29 22:34N 33°46' W 118°16'3 3.4
2017-Mar-29 21:33N 33°42' W 118°15'2 1.9
2017-Mar-29 20:34N 33°44' W 118°17'0 0.0
2017-Mar-29 19:33N 33°44' W 118°17'1 1.0
2017-Mar-29 18:33N 33°43' W 118°16'1 1.0
2017-Mar-29 17:33N 33°44' W 118°17'0 0.0
2017-Mar-29 16:32N 33°44' W 118°17'1 0.7
2017-Mar-29 15:33N 33°43' W 118°16'3 3.2
2017-Mar-29 14:30N 33°45' W 118°12'0 0.1
2017-Mar-29 13:34N 33°45' W 118°12'1 1.2
2017-Mar-29 12:31N 33°44' W 118°13'1 1.3
2017-Mar-29 11:33N 33°45' W 118°14'2 1.6
2017-Mar-29 10:33N 33°44' W 118°12'0 0.2
2017-Mar-29 09:33N 33°44' W 118°13'3 3.2
2017-Mar-29 08:33N 33°44' W 118°17'0 0.0
2017-Mar-29 07:33N 33°44' W 118°17'0 0.0
2017-Mar-29 06:33N 33°44' W 118°17'0 0.0
2017-Mar-29 05:33N 33°44' W 118°17'0 0.0
2017-Mar-29 04:33N 33°44' W 118°17'0 0.0
2017-Mar-29 03:33N 33°44' W 118°17'0 0.0
2017-Mar-29 02:33N 33°44' W 118°17'0 0.0
2017-Mar-29 01:33N 33°44' W 118°17'0 0.0
2017-Mar-29 00:33N 33°44' W 118°17'1 1.1
2017-Mar-28 23:33N 33°45' W 118°16'0 0.4
2017-Mar-28 22:32N 33°45' W 118°16'4 3.9
2017-Mar-28 21:33N 33°42' W 118°14'3 2.9
2017-Mar-28 20:33N 33°44' W 118°17'0 0.0
2017-Mar-28 19:33N 33°44' W 118°17'0 0.0
2017-Mar-28 18:33N 33°44' W 118°17'0 0.0
2017-Mar-28 17:33N 33°44' W 118°17'0 0.0
2017-Mar-28 16:33N 33°44' W 118°17'3 0.9
2017-Mar-28 13:33N 33°44' W 118°13'1 1.2
2017-Mar-28 12:33N 33°45' W 118°14'2 2.1
2017-Mar-28 11:28N 33°43' W 118°12'3 0.4
2017-Mar-28 03:19N 33°44' W 118°17'0 0.0
2017-Mar-28 02:25N 33°44' W 118°17'0 0.4
2017-Mar-28 01:33N 33°44' W 118°17'1 1.1
2017-Mar-28 00:26N 33°45' W 118°17'1 1.1
2017-Mar-27 23:32N 33°46' W 118°15'1 0.9
2017-Mar-27 22:32N 33°45' W 118°16'3 0.1
2017-Mar-27 00:17N 33°45' W 118°13'3 0.2
2017-Mar-26 07:28N 33°44' W 118°17'2 0.2
2017-Mar-25 22:15N 33°46' W 118°17'2 0.1
2017-Mar-25 09:30N 33°44' W 118°17'2 2.5
2017-Mar-25 08:33N 33°43' W 118°15'2 1.5
2017-Mar-25 07:16N 33°44' W 118°17'0 0.0
2017-Mar-25 04:25N 33°44' W 118°17'0 0.0
2017-Mar-25 03:33N 33°44' W 118°17'0 0.0
2017-Mar-25 02:33N 33°44' W 118°17'0 0.0
2017-Mar-25 01:33N 33°44' W 118°17'1 0.9
2017-Mar-25 00:33N 33°43' W 118°16'3 3.1
2017-Mar-24 23:33N 33°45' W 118°13'0 0.0
2017-Mar-24 22:33N 33°45' W 118°13'0 0.0
2017-Mar-24 21:33N 33°45' W 118°13'0 0.0
2017-Mar-24 20:31N 33°45' W 118°13'0 0.0
2017-Mar-24 19:12N 33°45' W 118°13'2 0.4
2017-Mar-24 15:04N 33°43' W 118°14'1 1.5
2017-Mar-24 14:29N 33°43' W 118°15'1 1.3
2017-Mar-24 13:33N 33°44' W 118°16'0 0.4
2017-Mar-24 12:33N 33°44' W 118°16'0 0.3
2017-Mar-24 11:27N 33°44' W 118°17'0 0.0
2017-Mar-24 10:33N 33°44' W 118°17'0 0.0
2017-Mar-24 09:33N 33°44' W 118°17'0 0.0
2017-Mar-24 05:33N 33°44' W 118°17'1 0.2
2017-Mar-24 00:27N 33°44' W 118°15'1 0.6
2017-Mar-23 22:32N 33°43' W 118°15'3 3.0
2017-Mar-23 21:33N 33°44' W 118°11'1 0.9
2017-Mar-23 20:34N 33°44' W 118°11'5 0.1
2017-Mar-21 19:20N 33°44' W 118°17'2 0.7
2017-Mar-21 16:28N 33°43' W 118°14'3 0.6
2017-Mar-21 12:18N 33°44' W 118°12'1 0.7
2017-Mar-21 11:09N 33°44' W 118°12'2 2.0
2017-Mar-21 10:08N 33°45' W 118°13'0 0.0
2017-Mar-21 09:24N 33°45' W 118°13'0 0.0
2017-Mar-21 08:21N 33°45' W 118°13'1 0.6
2017-Mar-21 07:17N 33°46' W 118°13'3 0.2
2017-Mar-20 18:27N 33°46' W 118°17'3 3.3
2017-Mar-20 17:27N 33°43' W 118°14'1 0.2
2017-Mar-20 11:32N 33°44' W 118°15'1 0.3
2017-Mar-20 07:33N 33°43' W 118°16'3 2.4
2017-Mar-20 06:21N 33°46' W 118°15'2 1.2
2017-Mar-20 04:15N 33°44' W 118°17'0 0.0
2017-Mar-20 03:31N 33°44' W 118°17'  

Dump ship's entire track history